Time,TemperatureF,DewpointF,PressureIn,WindDirection,WindDirectionDegrees,WindSpeedMPH,WindSpeedGustMPH,Humidity,HourlyPrecipIn,Conditions,Clouds,dailyrainin,SoftwareType,DateUTC
2013-05-24 00:06:00,53.5,38.0,29.58,SSE,155,0.0,0.0,56,0.00,,,0.00,weatherlink.com 1.10,2013-05-24 07:06:00,
2013-05-24 00:21:00,52.7,39.0,29.58,WSW,251,1.0,2.0,60,0.00,,,0.00,weatherlink.com 1.10,2013-05-24 07:21:00,
2013-05-24 00:36:00,52.1,38.0,29.58,SSW,201,0.0,1.0,60,0.00,,,0.00,weatherlink.com 1.10,2013-05-24 07:36:00,
2013-05-24 00:51:00,51.3,38.0,29.59,SW,214,0.0,3.0,60,0.00,,,0.00,weatherlink.com 1.10,2013-05-24 07:51:00,
2013-05-24 01:06:00,50.7,38.0,29.59,SSE,148,0.0,1.0,61,0.00,,,0.00,weatherlink.com 1.10,2013-05-24 08:06:00,
2013-05-24 01:21:00,50.1,38.0,29.59,South,181,1.0,1.0,63,0.00,,,0.00,weatherlink.com 1.10,2013-05-24 08:21:00,
2013-05-24 01:36:00,50.0,38.0,29.59,West,275,0.0,1.0,64,0.00,,,0.00,weatherlink.com 1.10,2013-05-24 08:36:00,
2013-05-24 01:51:00,49.4,38.0,29.60,West,275,0.0,0.0,65,0.00,,,0.00,weatherlink.com 1.10,2013-05-24 08:51:00,
2013-05-24 02:06:00,48.6,38.0,29.60,West,275,0.0,1.0,68,0.00,,,0.00,weatherlink.com 1.10,2013-05-24 09:06:00,
2013-05-24 02:21:00,48.0,38.0,29.61,West,275,0.0,0.0,69,0.00,,,0.00,weatherlink.com 1.10,2013-05-24 09:21:00,
2013-05-24 02:36:00,47.4,38.0,29.61,West,275,0.0,0.0,71,0.00,,,0.00,weatherlink.com 1.10,2013-05-24 09:36:00,
2013-05-24 02:51:00,47.0,38.0,29.62,West,275,0.0,0.0,71,0.00,,,0.00,weatherlink.com 1.10,2013-05-24 09:51:00,
2013-05-24 03:06:00,46.3,38.0,29.62,West,275,0.0,0.0,72,0.00,,,0.00,weatherlink.com 1.10,2013-05-24 10:06:00,
2013-05-24 03:21:00,45.7,38.0,29.62,West,275,0.0,1.0,74,0.00,,,0.00,weatherlink.com 1.10,2013-05-24 10:21:00,
2013-05-24 03:37:00,45.2,38.0,29.63,West,275,0.0,1.0,77,0.00,,,0.00,weatherlink.com 1.10,2013-05-24 10:37:00,
2013-05-24 03:52:00,44.7,38.0,29.64,West,275,0.0,0.0,77,0.00,,,0.00,weatherlink.com 1.10,2013-05-24 10:52:00,
2013-05-24 04:07:00,44.5,38.0,29.64,ESE,118,0.0,2.0,79,0.00,,,0.00,weatherlink.com 1.10,2013-05-24 11:07:00,
2013-05-24 04:22:00,44.2,38.0,29.65,ESE,118,0.0,1.0,80,0.00,,,0.00,weatherlink.com 1.10,2013-05-24 11:22:00,
2013-05-24 04:37:00,44.0,38.0,29.66,ESE,118,1.0,1.0,79,0.00,,,0.00,weatherlink.com 1.10,2013-05-24 11:37:00,
2013-05-24 04:52:00,44.1,37.0,29.66,ESE,116,0.0,2.0,77,0.00,,,0.00,weatherlink.com 1.10,2013-05-24 11:52:00,
2013-05-24 05:07:00,43.9,37.0,29.67,ESE,116,0.0,3.0,77,0.00,,,0.00,weatherlink.com 1.10,2013-05-24 12:07:00,
2013-05-24 05:22:00,44.0,37.0,29.67,ESE,116,0.0,1.0,77,0.00,,,0.00,weatherlink.com 1.10,2013-05-24 12:22:00,
2013-05-24 05:37:00,43.6,37.0,29.68,ESE,116,0.0,1.0,77,0.00,,,0.00,weatherlink.com 1.10,2013-05-24 12:37:00,
2013-05-24 05:52:00,45.1,39.0,29.69,ESE,116,0.0,1.0,79,0.00,,,0.00,weatherlink.com 1.10,2013-05-24 12:52:00,
2013-05-24 06:07:00,48.2,40.0,29.69,ESE,116,0.0,0.0,72,0.00,,,0.00,weatherlink.com 1.10,2013-05-24 13:07:00,
2013-05-24 06:22:00,52.1,41.0,29.69,ESE,116,0.0,0.0,66,0.00,,,0.00,weatherlink.com 1.10,2013-05-24 13:22:00,
2013-05-24 06:37:00,55.5,40.0,29.70,ESE,116,0.0,0.0,57,0.00,,,0.00,weatherlink.com 1.10,2013-05-24 13:37:00,
2013-05-24 06:52:00,58.8,42.0,29.71,ESE,116,0.0,1.0,54,0.00,,,0.00,weatherlink.com 1.10,2013-05-24 13:52:00,
2013-05-24 07:07:00,63.2,43.0,29.71,ESE,116,0.0,2.0,48,0.00,,,0.00,weatherlink.com 1.10,2013-05-24 14:07:00,
2013-05-24 07:22:00,65.3,41.0,29.71,ESE,116,0.0,1.0,42,0.00,,,0.00,weatherlink.com 1.10,2013-05-24 14:22:00,
2013-05-24 07:37:00,66.7,43.0,29.71,ESE,116,1.0,2.0,42,0.00,,,0.00,weatherlink.com 1.10,2013-05-24 14:37:00,
2013-05-24 07:52:00,69.0,41.0,29.71,ESE,116,0.0,1.0,36,0.00,,,0.00,weatherlink.com 1.10,2013-05-24 14:52:00,
2013-05-24 08:07:00,71.6,42.0,29.71,ESE,116,0.0,2.0,34,0.00,,,0.00,weatherlink.com 1.10,2013-05-24 15:07:00,
2013-05-24 08:22:00,75.5,40.0,29.71,ESE,116,0.0,2.0,28,0.00,,,0.00,weatherlink.com 1.10,2013-05-24 15:22:00,
2013-05-24 08:37:00,76.5,41.0,29.71,ESE,112,2.0,3.0,28,0.00,,,0.00,weatherlink.com 1.10,2013-05-24 15:37:00,
2013-05-24 08:53:00,77.6,39.0,29.71,ESE,103,2.0,9.0,25,0.00,,,0.00,weatherlink.com 1.10,2013-05-24 15:53:00,
2013-05-24 09:08:00,78.5,38.0,29.71,SE,140,1.0,8.0,23,0.00,,,0.00,weatherlink.com 1.10,2013-05-24 16:08:00,
2013-05-24 09:23:00,79.5,34.0,29.71,ESE,117,2.0,8.0,19,0.00,,,0.00,weatherlink.com 1.10,2013-05-24 16:23:00,
2013-05-24 09:38:00,79.8,34.0,29.71,ESE,113,1.0,10.0,19,0.00,,,0.00,weatherlink.com 1.10,2013-05-24 16:38:00,
2013-05-24 09:53:00,80.9,31.0,29.70,East,88,3.0,7.0,16,0.00,,,0.00,weatherlink.com 1.10,2013-05-24 16:53:00,
2013-05-24 10:08:00,82.2,33.0,29.70,South,172,1.0,7.0,17,0.00,,,0.00,weatherlink.com 1.10,2013-05-24 17:08:00,
2013-05-24 10:23:00,83.3,33.0,29.70,ESE,113,4.0,11.0,16,0.00,,,0.00,weatherlink.com 1.10,2013-05-24 17:23:00,
2013-05-24 10:38:00,83.8,39.0,29.69,SSE,155,1.0,8.0,20,0.00,,,0.00,weatherlink.com 1.10,2013-05-24 17:38:00,
2013-05-24 10:53:00,83.7,34.0,29.68,SE,144,6.0,12.0,17,0.00,,,0.00,weatherlink.com 1.10,2013-05-24 17:53:00,
2013-05-24 11:08:00,85.3,40.0,29.68,ESE,118,1.0,10.0,20,0.00,,,0.00,weatherlink.com 1.10,2013-05-24 18:08:00,
2013-05-24 11:23:00,85.4,36.0,29.68,ESE,123,7.0,12.0,17,0.00,,,0.00,weatherlink.com 1.10,2013-05-24 18:23:00,
2013-05-24 11:38:00,85.8,36.0,29.68,South,185,2.0,15.0,17,0.00,,,0.00,weatherlink.com 1.10,2013-05-24 18:38:00,
2013-05-24 11:53:00,85.9,33.0,29.67,WNW,283,2.0,7.0,15,0.00,,,0.00,weatherlink.com 1.10,2013-05-24 18:53:00,
2013-05-24 12:08:00,85.6,36.0,29.67,ESE,109,1.0,9.0,17,0.00,,,0.00,weatherlink.com 1.10,2013-05-24 19:08:00,
2013-05-24 12:23:00,87.0,34.0,29.66,ESE,113,8.0,10.0,15,0.00,,,0.00,weatherlink.com 1.10,2013-05-24 19:23:00,
2013-05-24 12:38:00,87.3,31.0,29.67,SW,219,9.0,17.0,13,0.00,,,0.00,weatherlink.com 1.10,2013-05-24 19:38:00,
2013-05-24 12:53:00,87.5,29.0,29.66,WSW,238,9.0,17.0,12,0.00,,,0.00,weatherlink.com 1.10,2013-05-24 19:53:00,
2013-05-24 13:08:00,88.9,28.0,29.66,SSW,209,9.0,16.0,11,0.00,,,0.00,weatherlink.com 1.10,2013-05-24 20:08:00,
2013-05-24 13:23:00,88.6,28.0,29.65,SSW,209,2.0,15.0,11,0.00,,,0.00,weatherlink.com 1.10,2013-05-24 20:23:00,
2013-05-24 13:38:00,88.5,25.0,29.65,SSW,193,12.0,16.0,10,0.00,,,0.00,weatherlink.com 1.10,2013-05-24 20:38:00,
2013-05-24 13:53:00,88.6,30.0,29.65,ENE,67,7.0,15.0,12,0.00,,,0.00,weatherlink.com 1.10,2013-05-24 20:53:00,
2013-05-24 14:08:00,88.6,28.0,29.64,ENE,78,5.0,19.0,11,0.00,,,0.00,weatherlink.com 1.10,2013-05-24 21:08:00,
2013-05-24 14:23:00,88.2,29.0,29.64,ESE,108,5.0,13.0,12,0.00,,,0.00,weatherlink.com 1.10,2013-05-24 21:23:00,
2013-05-24 14:38:00,89.1,28.0,29.64,SW,222,8.0,15.0,11,0.00,,,0.00,weatherlink.com 1.10,2013-05-24 21:38:00,
2013-05-24 14:53:00,89.5,26.0,29.64,SSW,198,1.0,15.0,10,0.00,,,0.00,weatherlink.com 1.10,2013-05-24 21:53:00,
2013-05-24 15:08:00,89.3,30.0,29.63,South,191,2.0,17.0,12,0.00,,,0.00,weatherlink.com 1.10,2013-05-24 22:08:00,
2013-05-24 15:23:00,89.7,29.0,29.63,ESE,110,2.0,17.0,11,0.00,,,0.00,weatherlink.com 1.10,2013-05-24 22:23:00,
2013-05-24 15:38:00,89.3,30.0,29.63,East,84,6.0,14.0,12,0.00,,,0.00,weatherlink.com 1.10,2013-05-24 22:38:00,
2013-05-24 15:53:00,88.7,28.0,29.63,South,180,2.0,10.0,11,0.00,,,0.00,weatherlink.com 1.10,2013-05-24 22:53:00,
2013-05-24 16:08:00,88.7,28.0,29.62,SW,229,3.0,11.0,11,0.00,,,0.00,weatherlink.com 1.10,2013-05-24 23:08:00,
2013-05-24 16:23:00,88.9,30.0,29.62,ESE,103,9.0,12.0,12,0.00,,,0.00,weatherlink.com 1.10,2013-05-24 23:23:00,
2013-05-24 16:38:00,88.4,30.0,29.62,South,188,1.0,13.0,12,0.00,,,0.00,weatherlink.com 1.10,2013-05-24 23:38:00,
2013-05-24 16:53:00,88.3,32.0,29.62,WSW,238,1.0,7.0,13,0.00,,,0.00,weatherlink.com 1.10,2013-05-24 23:53:00,
2013-05-24 17:08:00,87.6,31.0,29.62,ESE,123,3.0,10.0,13,0.00,,,0.00,weatherlink.com 1.10,2013-05-25 00:08:00,
2013-05-24 17:23:00,87.5,31.0,29.61,SSW,197,4.0,6.0,13,0.00,,,0.00,weatherlink.com 1.10,2013-05-25 00:23:00,
2013-05-24 17:38:00,86.8,28.0,29.62,SE,146,4.0,9.0,12,0.00,,,0.00,weatherlink.com 1.10,2013-05-25 00:38:00,
2013-05-24 17:53:00,86.5,30.0,29.61,SE,125,3.0,8.0,13,0.00,,,0.00,weatherlink.com 1.10,2013-05-25 00:53:00,
2013-05-24 18:08:00,85.0,31.0,29.61,ESE,123,9.0,10.0,14,0.00,,,0.00,weatherlink.com 1.10,2013-05-25 01:08:00,
2013-05-24 18:23:00,84.3,30.0,29.61,South,178,4.0,11.0,14,0.00,,,0.00,weatherlink.com 1.10,2013-05-25 01:23:00,
2013-05-24 18:38:00,83.8,30.0,29.62,East,92,5.0,8.0,14,0.00,,,0.00,weatherlink.com 1.10,2013-05-25 01:38:00,
2013-05-24 18:53:00,81.8,28.0,29.62,SE,132,4.0,7.0,14,0.00,,,0.00,weatherlink.com 1.10,2013-05-25 01:53:00,
2013-05-24 19:08:00,80.2,32.0,29.62,SSW,194,2.0,7.0,17,0.00,,,0.00,weatherlink.com 1.10,2013-05-25 02:08:00,
2013-05-24 19:23:00,78.7,29.0,29.62,ESE,122,1.0,6.0,16,0.00,,,0.00,weatherlink.com 1.10,2013-05-25 02:23:00,
2013-05-24 19:38:00,77.3,29.0,29.62,ESE,123,1.0,5.0,17,0.00,,,0.00,weatherlink.com 1.10,2013-05-25 02:38:00,
2013-05-24 19:53:00,75.7,31.0,29.63,ESE,123,1.0,2.0,19,0.00,,,0.00,weatherlink.com 1.10,2013-05-25 02:53:00,
2013-05-24 20:08:00,73.5,32.0,29.63,ESE,123,0.0,0.0,22,0.00,,,0.00,weatherlink.com 1.10,2013-05-25 03:08:00,
2013-05-24 20:23:00,70.8,35.0,29.63,SE,125,0.0,1.0,27,0.00,,,0.00,weatherlink.com 1.10,2013-05-25 03:23:00,
2013-05-24 20:38:00,68.3,36.0,29.63,SE,125,0.0,1.0,31,0.00,,,0.00,weatherlink.com 1.10,2013-05-25 03:38:00,
2013-05-24 20:53:00,66.0,36.0,29.64,SE,125,0.0,0.0,33,0.00,,,0.00,weatherlink.com 1.10,2013-05-25 03:53:00,
2013-05-24 21:08:00,64.1,38.0,29.64,ESE,109,1.0,1.0,38,0.00,,,0.00,weatherlink.com 1.10,2013-05-25 04:08:00,
2013-05-24 21:23:00,62.4,38.0,29.64,ESE,109,0.0,2.0,40,0.00,,,0.00,weatherlink.com 1.10,2013-05-25 04:23:00,
2013-05-24 21:53:00,59.9,37.0,29.65,NW,324,0.0,3.0,42,0.00,,,0.00,weatherlink.com 1.10,2013-05-25 04:53:00,
2013-05-24 22:08:00,59.0,38.0,29.65,NW,324,0.0,2.0,45,0.00,,,0.00,weatherlink.com 1.10,2013-05-25 05:08:00,
2013-05-24 22:23:00,57.6,38.0,29.65,NE,37,0.0,2.0,49,0.00,,,0.00,weatherlink.com 1.10,2013-05-25 05:23:00,
2013-05-24 22:39:00,56.6,39.0,29.66,NE,37,0.0,1.0,53,0.00,,,0.00,weatherlink.com 1.10,2013-05-25 05:39:00,
2013-05-24 22:53:00,55.8,38.0,29.66,NE,37,0.0,2.0,52,0.00,,,0.00,weatherlink.com 1.10,2013-05-25 05:53:00,
2013-05-24 23:08:00,55.1,37.0,29.66,WSW,241,1.0,3.0,51,0.00,,,0.00,weatherlink.com 1.10,2013-05-25 06:08:00,
2013-05-24 23:23:00,54.8,39.0,29.66,WSW,242,0.0,1.0,56,0.00,,,0.00,weatherlink.com 1.10,2013-05-25 06:23:00,
2013-05-24 23:38:00,53.9,40.0,29.66,WSW,242,0.0,1.0,59,0.00,,,0.00,weatherlink.com 1.10,2013-05-25 06:38:00,
2013-05-24 23:53:00,52.9,39.0,29.66,WSW,242,0.0,0.0,60,0.00,,,0.00,weatherlink.com 1.10,2013-05-25 06:53:00,